createdAt,value
2023-03-25T00:00:16.752Z,41.10
2023-03-25T00:00:39.552Z,41.00
2023-03-25T00:01:02.971Z,41.27
2023-03-25T00:01:25.982Z,41.47
2023-03-25T00:01:48.984Z,41.65
2023-03-25T00:02:12.549Z,41.36
2023-03-25T00:02:34.711Z,41.32
2023-03-25T00:02:57.136Z,41.35
2023-03-25T00:03:22.384Z,41.01
2023-03-25T00:03:46.535Z,41.12
2023-03-25T00:04:08.696Z,41.11
2023-03-25T00:04:31.246Z,40.98
2023-03-25T00:04:54.445Z,41.25
2023-03-25T00:05:18.924Z,41.19
2023-03-25T00:05:40.586Z,41.22
2023-03-25T00:06:02.266Z,40.87
2023-03-25T00:06:24.896Z,40.71
2023-03-25T00:06:46.837Z,40.54
2023-03-25T00:07:08.507Z,40.59
2023-03-25T00:07:30.097Z,40.65
2023-03-25T00:07:53.807Z,40.74
2023-03-25T00:08:15.755Z,40.30
2023-03-25T00:08:37.946Z,40.19
2023-03-25T00:08:59.539Z,40.55
2023-03-25T00:09:22.083Z,40.87
2023-03-25T00:09:43.719Z,40.92
2023-03-25T00:10:07.044Z,40.76
2023-03-25T00:10:29.976Z,40.40
2023-03-25T00:10:54.310Z,40.46
2023-03-25T00:11:15.948Z,40.92
2023-03-25T00:11:37.585Z,40.67
2023-03-25T00:11:59.242Z,40.71
2023-03-25T00:12:21.884Z,40.75
2023-03-25T00:12:43.721Z,41.00
2023-03-25T00:13:05.873Z,41.04
2023-03-25T00:13:27.921Z,41.28
2023-03-25T00:13:50.803Z,41.21
2023-03-25T00:14:12.471Z,41.01
2023-03-25T00:14:34.097Z,40.88
2023-03-25T00:14:55.766Z,40.99
2023-03-25T00:15:18.636Z,40.90
2023-03-25T00:15:42.799Z,40.54
2023-03-25T00:16:07.107Z,40.63
2023-03-25T00:16:28.858Z,40.68
2023-03-25T00:16:53.200Z,40.68
2023-03-25T00:17:17.405Z,40.49
2023-03-25T00:17:39.523Z,40.70
2023-03-25T00:18:02.099Z,40.58
2023-03-25T00:18:26.517Z,40.61
2023-03-25T00:18:48.156Z,40.86
2023-03-25T00:19:09.848Z,40.64
2023-03-25T00:19:31.979Z,40.64
2023-03-25T00:19:55.519Z,40.36
2023-03-25T00:20:18.296Z,40.70
2023-03-25T00:20:40.893Z,40.46
2023-03-25T00:21:04.652Z,40.39
2023-03-25T00:21:27.421Z,40.29
2023-03-25T00:21:50.418Z,40.43
2023-03-25T00:22:12.166Z,40.41
2023-03-25T00:22:33.796Z,40.40
2023-03-25T00:22:56.701Z,40.34
2023-03-25T00:23:19.684Z,40.66
2023-03-25T00:23:42.262Z,40.50
2023-03-25T00:24:04.078Z,40.44
2023-03-25T00:24:26.765Z,40.65
2023-03-25T00:24:49.140Z,40.45
2023-03-25T00:25:16.439Z,40.47
2023-03-25T00:25:39.628Z,40.41
2023-03-25T00:26:03.131Z,40.15
2023-03-25T00:26:24.900Z,40.45
2023-03-25T00:26:48.754Z,40.50
2023-03-25T00:27:11.883Z,40.50
2023-03-25T00:27:34.699Z,40.90
2023-03-25T00:27:56.656Z,40.44
2023-03-25T00:28:18.933Z,40.46
2023-03-25T00:28:40.629Z,40.36
2023-03-25T00:29:03.301Z,40.41
2023-03-25T00:29:25.052Z,40.17
2023-03-25T00:29:48.681Z,40.06
2023-03-25T00:30:11.731Z,40.31
2023-03-25T00:30:34.693Z,40.17
2023-03-25T00:30:58.867Z,40.08
2023-03-25T00:31:22.097Z,40.00
2023-03-25T00:31:44.051Z,40.15
2023-03-25T00:32:07.313Z,40.09
2023-03-25T00:32:29.670Z,39.79
2023-03-25T00:32:52.550Z,39.96
2023-03-25T00:33:18.070Z,39.92
2023-03-25T00:33:41.876Z,40.11
2023-03-25T00:34:03.707Z,39.91
2023-03-25T00:34:26.775Z,39.64
2023-03-25T00:34:48.755Z,40.03
2023-03-25T00:35:10.638Z,40.02
2023-03-25T00:35:33.986Z,40.20
2023-03-25T00:36:01.882Z,40.18
2023-03-25T00:36:26.144Z,40.01
2023-03-25T00:36:47.834Z,40.19
2023-03-25T00:37:11.736Z,40.12
2023-03-25T00:37:33.361Z,40.08
2023-03-25T00:38:00.083Z,39.86
2023-03-25T00:38:24.412Z,39.83
2023-03-25T00:38:50.063Z,40.26
2023-03-25T00:39:11.767Z,40.10
2023-03-25T00:39:33.711Z,40.33
2023-03-25T00:39:55.375Z,40.16
2023-03-25T00:40:17.158Z,40.11
2023-03-25T00:40:41.969Z,39.77
2023-03-25T00:41:11.120Z,39.80
2023-03-25T00:41:33.588Z,39.84
2023-03-25T00:41:57.226Z,40.02
2023-03-25T00:42:26.031Z,40.25
2023-03-25T00:42:50.074Z,40.28
2023-03-25T00:43:14.367Z,40.42
2023-03-25T00:43:37.686Z,40.64
2023-03-25T00:44:00.663Z,40.43
2023-03-25T00:44:23.581Z,40.10
2023-03-25T00:44:45.459Z,39.95
2023-03-25T00:45:08.422Z,40.05
2023-03-25T00:45:31.766Z,39.87
2023-03-25T00:45:55.411Z,40.42
2023-03-25T00:46:17.284Z,40.72
2023-03-25T00:46:38.961Z,40.31
2023-03-25T00:47:01.645Z,39.96
2023-03-25T00:47:24.594Z,40.01
2023-03-25T00:47:46.422Z,40.08
2023-03-25T00:48:08.205Z,40.32
2023-03-25T00:48:30.045Z,40.02
2023-03-25T00:48:52.816Z,40.28
2023-03-25T00:49:14.525Z,40.14
2023-03-25T00:49:36.644Z,40.21
2023-03-25T00:49:58.311Z,39.97
2023-03-25T00:50:21.852Z,40.30
2023-03-25T00:50:43.497Z,40.37
2023-03-25T00:51:08.990Z,39.98
2023-03-25T00:51:31.384Z,40.10
2023-03-25T00:51:54.323Z,39.96
2023-03-25T00:52:16.446Z,40.12
2023-03-25T00:52:38.216Z,40.20
2023-03-25T00:52:59.819Z,40.01
2023-03-25T00:53:21.478Z,40.42
2023-03-25T00:53:44.110Z,40.41
2023-03-25T00:54:07.492Z,40.49
2023-03-25T00:54:29.137Z,40.68
2023-03-25T00:54:50.765Z,40.46
2023-03-25T00:55:12.578Z,41.10
2023-03-25T00:55:35.324Z,41.06
2023-03-25T00:55:59.574Z,41.45
2023-03-25T00:56:22.117Z,41.22
2023-03-25T00:56:44.576Z,40.95
2023-03-25T00:57:08.588Z,41.31
2023-03-25T00:57:32.185Z,40.93
2023-03-25T00:57:53.883Z,40.88
2023-03-25T00:58:15.682Z,40.56
2023-03-25T00:58:38.632Z,40.76
2023-03-25T00:59:00.335Z,40.61
2023-03-25T00:59:22.124Z,40.88
2023-03-25T00:59:43.789Z,40.97
2023-03-25T01:00:08.657Z,41.32
2023-03-25T01:00:31.036Z,41.18
2023-03-25T01:00:53.020Z,40.80
2023-03-25T01:01:19.248Z,40.51
2023-03-25T01:01:43.453Z,40.40
2023-03-25T01:02:06.834Z,40.14
2023-03-25T01:02:31.087Z,40.36
2023-03-25T01:02:54.033Z,40.01
2023-03-25T01:03:16.533Z,40.23
2023-03-25T01:03:39.522Z,40.35
2023-03-25T01:04:02.216Z,40.15
2023-03-25T01:04:24.135Z,40.20
2023-03-25T01:04:46.582Z,40.38
2023-03-25T01:05:11.335Z,39.99
2023-03-25T01:05:33.251Z,40.02
2023-03-25T01:05:56.518Z,40.48
2023-03-25T01:06:18.100Z,40.22
2023-03-25T01:06:43.974Z,40.18
2023-03-25T01:07:05.872Z,39.73
2023-03-25T01:07:29.337Z,39.88
2023-03-25T01:07:51.763Z,40.13
2023-03-25T01:08:14.948Z,40.29
2023-03-25T01:08:37.608Z,40.12
2023-03-25T01:09:01.047Z,40.11
2023-03-25T01:09:22.727Z,40.40
2023-03-25T01:09:46.524Z,40.78
2023-03-25T01:10:11.612Z,40.59
2023-03-25T01:10:35.553Z,40.30
2023-03-25T01:10:57.322Z,40.29
2023-03-25T01:11:22.992Z,40.09
2023-03-25T01:11:47.370Z,40.00
2023-03-25T01:12:09.368Z,40.24
2023-03-25T01:12:31.615Z,40.38
2023-03-25T01:12:53.227Z,40.62
2023-03-25T01:13:14.870Z,40.75
2023-03-25T01:13:39.794Z,40.50
2023-03-25T01:14:08.065Z,40.46
2023-03-25T01:14:29.916Z,40.75
2023-03-25T01:14:53.181Z,40.58
2023-03-25T01:15:16.288Z,40.48
2023-03-25T01:15:40.811Z,40.74
2023-03-25T01:16:07.827Z,40.66
2023-03-25T01:16:31.549Z,40.73
2023-03-25T01:16:55.519Z,40.73
2023-03-25T01:17:17.365Z,40.73
2023-03-25T01:17:39.226Z,40.76
2023-03-25T01:18:01.003Z,40.92
2023-03-25T01:18:22.656Z,40.49
2023-03-25T01:18:44.830Z,40.53
2023-03-25T01:19:07.765Z,40.64
2023-03-25T01:19:29.462Z,40.60
2023-03-25T01:19:52.214Z,40.61
2023-03-25T01:20:13.874Z,40.37
2023-03-25T01:20:35.614Z,40.27
2023-03-25T01:20:57.347Z,40.53
2023-03-25T01:21:20.149Z,40.45
2023-03-25T01:21:42.185Z,40.37
2023-03-25T01:22:05.636Z,40.07
2023-03-25T01:22:27.489Z,40.36
2023-03-25T01:23:33.937Z,40.40
2023-03-25T01:23:55.665Z,40.14
2023-03-25T01:24:19.341Z,40.27
2023-03-25T01:24:42.087Z,40.31
2023-03-25T01:25:04.210Z,40.58
2023-03-25T01:25:26.223Z,40.67
2023-03-25T01:25:48.485Z,40.67
2023-03-25T01:26:12.918Z,40.63
2023-03-25T01:26:36.243Z,40.49
2023-03-25T01:26:59.886Z,41.03
2023-03-25T01:27:24.801Z,41.00
2023-03-25T01:27:47.510Z,40.80
2023-03-25T01:28:10.818Z,40.99
2023-03-25T01:28:32.693Z,41.71
2023-03-25T01:28:54.618Z,41.49
2023-03-25T01:29:19.982Z,41.24
2023-03-25T01:29:41.780Z,40.93
2023-03-25T01:30:04.592Z,40.55
2023-03-25T01:30:26.334Z,40.64
2023-03-25T01:30:49.121Z,40.32
2023-03-25T01:31:13.173Z,40.08
2023-03-25T01:31:34.983Z,40.16
2023-03-25T01:31:57.108Z,40.31
2023-03-25T01:32:19.856Z,39.97
2023-03-25T01:32:41.554Z,40.24
2023-03-25T01:33:03.379Z,40.28
2023-03-25T01:33:25.500Z,40.48
2023-03-25T01:33:48.124Z,40.42
2023-03-25T01:34:10.761Z,40.39
2023-03-25T01:34:33.022Z,40.48
2023-03-25T01:34:57.320Z,40.60
2023-03-25T01:35:19.875Z,40.79
2023-03-25T01:35:42.017Z,41.00
2023-03-25T01:36:04.630Z,40.92
2023-03-25T01:36:29.408Z,40.70
2023-03-25T01:36:55.397Z,40.47
2023-03-25T01:37:18.096Z,40.96
2023-03-25T01:37:39.806Z,40.58
2023-03-25T01:38:01.519Z,40.85
2023-03-25T01:38:24.104Z,40.70
2023-03-25T01:38:47.973Z,41.34
2023-03-25T01:39:10.739Z,41.13
2023-03-25T01:39:32.719Z,40.59
2023-03-25T01:39:55.275Z,40.78
2023-03-25T01:40:20.988Z,40.97
2023-03-25T01:40:45.660Z,40.82
2023-03-25T01:41:09.165Z,41.04
2023-03-25T01:41:46.292Z,41.04
2023-03-25T01:42:11.897Z,40.84
2023-03-25T01:42:33.611Z,40.24
2023-03-25T01:42:56.261Z,40.71
2023-03-25T01:43:18.286Z,40.78
2023-03-25T01:43:39.933Z,40.84
2023-03-25T01:44:04.016Z,40.68
2023-03-25T01:45:04.629Z,40.74
2023-03-25T01:45:29.225Z,40.63
2023-03-25T01:45:52.000Z,40.65
2023-03-25T01:46:15.182Z,40.57
2023-03-25T01:46:38.550Z,40.33
2023-03-25T01:47:05.074Z,40.16
2023-03-25T01:47:27.405Z,40.02
2023-03-25T01:47:58.428Z,39.92
2023-03-25T01:48:23.634Z,40.09
2023-03-25T01:48:45.321Z,40.22
2023-03-25T01:49:09.776Z,40.41
2023-03-25T01:49:38.815Z,40.36
2023-03-25T01:50:00.474Z,40.55
2023-03-25T01:50:22.501Z,40.53
2023-03-25T01:50:48.455Z,40.48
2023-03-25T01:51:14.662Z,40.55
2023-03-25T01:51:40.767Z,40.70
2023-03-25T01:52:07.552Z,40.75
2023-03-25T01:52:30.729Z,40.52
2023-03-25T01:52:52.796Z,40.54
2023-03-25T01:53:14.527Z,40.41
2023-03-25T01:53:36.333Z,40.83
2023-03-25T01:53:59.172Z,40.85
2023-03-25T01:54:21.201Z,41.19
2023-03-25T01:54:44.045Z,41.24
2023-03-25T01:55:08.031Z,41.08
2023-03-25T01:55:33.189Z,41.46
2023-03-25T01:55:55.932Z,41.33
2023-03-25T01:56:22.435Z,40.96
2023-03-25T01:56:47.042Z,40.95
2023-03-25T01:57:13.036Z,40.98
2023-03-25T01:57:37.190Z,40.51
2023-03-25T01:58:02.758Z,40.79
2023-03-25T01:58:27.221Z,40.58
2023-03-25T01:58:51.138Z,40.34
2023-03-25T01:59:14.928Z,40.04
2023-03-25T01:59:39.260Z,40.27
2023-03-25T02:00:01.462Z,40.23
2023-03-25T02:00:26.605Z,40.49
2023-03-25T02:00:51.908Z,41.10
2023-03-25T02:01:17.164Z,41.76
2023-03-25T02:01:38.765Z,41.82
2023-03-25T02:02:04.131Z,42.07
2023-03-25T02:02:34.831Z,42.35
2023-03-25T02:03:00.299Z,42.77
2023-03-25T02:03:23.555Z,42.90
2023-03-25T02:03:46.516Z,42.79
2023-03-25T02:04:11.300Z,42.36
2023-03-25T02:04:39.107Z,42.55
2023-03-25T02:05:05.602Z,43.09
2023-03-25T02:05:33.669Z,42.92
2023-03-25T02:06:00.803Z,42.66
2023-03-25T02:06:28.935Z,42.82
2023-03-25T02:06:53.753Z,43.11
2023-03-25T02:07:18.639Z,42.90
2023-03-25T02:07:42.878Z,42.64
2023-03-25T02:08:09.151Z,42.63
2023-03-25T02:08:32.707Z,42.39
2023-03-25T02:08:56.870Z,42.33
2023-03-25T02:09:21.586Z,42.28
2023-03-25T02:09:44.517Z,41.88
2023-03-25T02:10:08.504Z,42.17
2023-03-25T02:10:30.552Z,41.83
2023-03-25T02:10:54.117Z,42.00
2023-03-25T02:11:17.773Z,42.01
2023-03-25T02:11:39.871Z,42.09
2023-03-25T02:12:01.514Z,42.49
2023-03-25T02:12:25.067Z,42.52
2023-03-25T02:12:47.285Z,42.52
2023-03-25T02:13:10.315Z,42.35
2023-03-25T02:13:34.665Z,42.60
2023-03-25T02:14:00.089Z,42.93
2023-03-25T02:14:26.024Z,43.27
2023-03-25T02:14:47.716Z,43.82
2023-03-25T02:15:11.828Z,43.68
2023-03-25T02:15:49.309Z,44.08
2023-03-25T02:16:25.516Z,44.49
2023-03-25T02:17:01.038Z,44.04
2023-03-25T02:17:33.571Z,44.19
2023-03-25T02:18:17.496Z,44.49
2023-03-25T02:18:49.355Z,44.23
2023-03-25T02:20:09.203Z,44.34
2023-03-25T02:21:18.012Z,45.31
2023-03-25T02:22:14.749Z,45.02
2023-03-25T02:23:11.277Z,44.86
2023-03-25T02:24:14.575Z,45.46
2023-03-25T02:25:19.036Z,45.26
2023-03-25T02:26:22.794Z,45.01
2023-03-25T02:27:14.013Z,44.93
2023-03-25T02:27:57.219Z,44.97
2023-03-25T02:28:29.681Z,44.89
2023-03-25T02:29:02.090Z,45.18
2023-03-25T02:29:38.455Z,44.94
2023-03-25T02:30:42.464Z,45.00
2023-03-25T02:31:19.052Z,45.64
2023-03-25T02:31:55.910Z,45.70
2023-03-25T02:32:38.006Z,45.22
2023-03-25T02:33:27.547Z,45.56
2023-03-25T02:34:19.480Z,45.87
2023-03-25T02:35:21.750Z,46.19
2023-03-25T02:36:02.012Z,46.07
2023-03-25T02:37:09.300Z,45.87
2023-03-25T02:37:51.056Z,45.66
2023-03-25T02:38:26.229Z,45.62
2023-03-25T02:38:50.464Z,45.54
2023-03-25T02:39:17.814Z,45.47
2023-03-25T02:39:44.549Z,45.53
2023-03-25T02:40:10.976Z,46.06
2023-03-25T02:40:38.336Z,45.80
2023-03-25T02:41:06.827Z,45.78
2023-03-25T02:41:40.293Z,45.56
2023-03-25T02:42:09.189Z,45.56
2023-03-25T02:42:37.612Z,45.59
2023-03-25T02:43:03.665Z,46.03
2023-03-25T02:43:33.439Z,46.00
2023-03-25T02:44:01.819Z,46.26
2023-03-25T02:44:31.526Z,45.74
2023-03-25T02:45:00.235Z,45.94
2023-03-25T02:45:30.192Z,45.77
2023-03-25T02:45:58.279Z,45.96
2023-03-25T02:46:23.803Z,46.01
2023-03-25T02:46:50.166Z,45.97
2023-03-25T02:47:17.982Z,45.85
2023-03-25T02:47:47.589Z,45.68
2023-03-25T02:48:14.944Z,45.79
2023-03-25T02:48:42.478Z,46.13
2023-03-25T02:49:08.600Z,45.74
2023-03-25T02:49:36.045Z,45.97
2023-03-25T02:50:04.693Z,45.83
2023-03-25T02:50:30.814Z,45.68
2023-03-25T02:50:57.263Z,45.70
2023-03-25T02:51:26.030Z,45.48
2023-03-25T02:51:55.677Z,45.27
2023-03-25T02:52:21.587Z,45.56
2023-03-25T02:52:50.463Z,45.62
2023-03-25T02:53:17.082Z,45.77
2023-03-25T02:53:42.871Z,45.97
2023-03-25T02:54:09.189Z,45.97
2023-03-25T02:54:34.219Z,46.32
2023-03-25T02:55:04.778Z,46.51
2023-03-25T02:55:30.510Z,46.40
2023-03-25T02:55:54.992Z,46.53
2023-03-25T02:56:22.289Z,46.62
2023-03-25T02:56:47.321Z,46.50
2023-03-25T02:57:14.408Z,46.76
2023-03-25T02:57:39.898Z,46.74
2023-03-25T02:58:09.816Z,46.55
2023-03-25T02:58:33.283Z,46.53
2023-03-25T02:58:56.960Z,46.15
2023-03-25T02:59:22.147Z,46.21
2023-03-25T02:59:47.887Z,46.28
2023-03-25T03:00:15.207Z,46.14
2023-03-25T03:00:38.301Z,45.81
2023-03-25T03:01:00.204Z,45.78
2023-03-25T03:01:26.622Z,45.70
2023-03-25T03:01:51.241Z,45.64
2023-03-25T03:02:15.825Z,46.10
2023-03-25T03:02:43.251Z,46.15
2023-03-25T03:03:07.222Z,46.12
2023-03-25T03:03:30.042Z,46.28
2023-03-25T03:03:55.247Z,46.29
2023-03-25T03:04:16.943Z,46.30
2023-03-25T03:04:46.234Z,46.05
2023-03-25T03:05:23.124Z,45.96
2023-03-25T03:05:50.514Z,45.86
2023-03-25T03:06:17.751Z,45.92
2023-03-25T03:06:42.810Z,45.88
2023-03-25T03:07:04.563Z,46.15
2023-03-25T03:07:29.376Z,46.10
2023-03-25T03:08:05.033Z,45.89
2023-03-25T03:08:42.047Z,46.09
2023-03-25T03:09:23.157Z,45.90
2023-03-25T03:09:51.560Z,45.87
2023-03-25T03:10:22.852Z,46.12
2023-03-25T03:10:52.930Z,46.37
2023-03-25T03:11:20.342Z,46.37
2023-03-25T03:11:52.396Z,46.11
2023-03-25T03:12:27.925Z,45.89
2023-03-25T03:12:59.498Z,45.65
2023-03-25T03:13:28.863Z,45.72
2023-03-25T03:14:14.760Z,45.24
2023-03-25T03:14:56.230Z,45.33
2023-03-25T03:15:27.398Z,45.24
2023-03-25T03:16:01.999Z,45.18
2023-03-25T03:16:32.890Z,44.85
2023-03-25T03:17:05.749Z,44.76
2023-03-25T03:17:39.214Z,44.97
2023-03-25T03:18:09.868Z,45.24
2023-03-25T03:18:44.736Z,44.80
2023-03-25T03:19:21.090Z,45.12
2023-03-25T03:19:52.663Z,44.91
2023-03-25T03:20:19.915Z,44.90
2023-03-25T03:20:54.807Z,45.22
2023-03-25T03:21:23.253Z,44.77
2023-03-25T03:21:55.337Z,44.98
2023-03-25T03:22:34.113Z,44.78
2023-03-25T03:23:06.099Z,44.77
2023-03-25T03:23:33.849Z,45.12
2023-03-25T03:23:58.336Z,45.08
2023-03-25T03:24:25.568Z,44.97
2023-03-25T03:24:51.367Z,45.19
2023-03-25T03:25:24.030Z,45.50
2023-03-25T03:25:50.984Z,45.12
2023-03-25T03:26:24.775Z,45.00
2023-03-25T03:26:55.282Z,45.23
2023-03-25T03:27:26.178Z,45.15
2023-03-25T03:27:53.938Z,44.95
2023-03-25T03:28:27.500Z,44.98
2023-03-25T03:28:55.348Z,45.17
2023-03-25T03:29:20.370Z,45.54
2023-03-25T03:29:47.339Z,45.46
2023-03-25T03:30:13.724Z,45.46
2023-03-25T03:30:43.829Z,45.50
2023-03-25T03:31:11.186Z,45.30
2023-03-25T03:31:48.770Z,45.11
2023-03-25T03:32:26.124Z,45.13
2023-03-25T03:32:55.857Z,45.27
2023-03-25T03:33:21.845Z,44.97
2023-03-25T03:33:50.704Z,45.31
2023-03-25T03:34:19.930Z,44.86
2023-03-25T03:34:46.959Z,44.76
2023-03-25T03:35:13.576Z,45.03
2023-03-25T03:35:40.733Z,45.05
2023-03-25T03:36:07.209Z,45.15
2023-03-25T03:36:34.469Z,45.14
2023-03-25T03:36:58.401Z,44.98
2023-03-25T03:37:27.341Z,45.00
2023-03-25T03:37:54.903Z,45.00
2023-03-25T03:38:23.738Z,45.14
2023-03-25T03:38:51.824Z,45.58
2023-03-25T03:39:20.652Z,45.74
2023-03-25T03:39:44.491Z,45.46
2023-03-25T03:40:14.032Z,45.21
2023-03-25T03:40:39.877Z,45.02
2023-03-25T03:41:07.268Z,44.96
2023-03-25T03:41:31.211Z,44.58
2023-03-25T03:41:58.618Z,44.67
2023-03-25T03:42:24.532Z,44.67
2023-03-25T03:42:52.824Z,44.62
2023-03-25T03:43:18.534Z,44.37
2023-03-25T03:43:46.450Z,44.32
2023-03-25T03:44:14.207Z,44.40
2023-03-25T03:44:39.945Z,44.67
2023-03-25T03:45:07.832Z,44.53
2023-03-25T03:45:35.161Z,44.47
2023-03-25T03:46:01.540Z,44.80
2023-03-25T03:46:29.308Z,44.46
2023-03-25T03:46:55.232Z,44.08
2023-03-25T03:47:22.413Z,43.84
2023-03-25T03:47:49.604Z,43.76
2023-03-25T03:48:15.876Z,44.05
2023-03-25T03:48:42.367Z,43.84
2023-03-25T03:49:10.962Z,44.05
2023-03-25T03:49:38.318Z,44.08
2023-03-25T03:50:04.937Z,43.96
2023-03-25T03:50:31.602Z,43.97
2023-03-25T03:50:56.826Z,43.91
2023-03-25T03:51:24.998Z,44.11
2023-03-25T03:51:52.433Z,43.72
2023-03-25T03:52:21.550Z,43.75
2023-03-25T03:52:48.094Z,43.93
2023-03-25T03:53:15.966Z,43.88
2023-03-25T03:53:42.554Z,43.87
2023-03-25T03:54:10.070Z,43.82
2023-03-25T03:54:35.922Z,43.37
2023-03-25T03:55:02.100Z,43.50
2023-03-25T03:55:29.260Z,43.40
2023-03-25T03:56:01.914Z,43.79
2023-03-25T03:56:28.988Z,43.88
2023-03-25T03:56:54.279Z,43.61
2023-03-25T03:57:21.410Z,43.25
2023-03-25T03:57:48.073Z,43.53
2023-03-25T03:58:15.548Z,43.42
2023-03-25T03:58:41.808Z,43.46
2023-03-25T03:59:09.344Z,43.32
2023-03-25T03:59:40.397Z,43.41
2023-03-25T04:00:06.543Z,43.22
2023-03-25T04:00:41.948Z,42.98
2023-03-25T04:01:09.893Z,43.20
2023-03-25T04:01:38.033Z,43.17
2023-03-25T04:02:03.263Z,42.73
2023-03-25T04:02:32.861Z,43.00
2023-03-25T04:02:59.519Z,43.62
2023-03-25T04:03:24.685Z,43.13
2023-03-25T04:03:53.278Z,43.08
2023-03-25T04:04:20.505Z,43.17
2023-03-25T04:04:43.883Z,43.33
2023-03-25T04:05:08.877Z,43.16
2023-03-25T04:05:31.882Z,43.18
2023-03-25T04:05:59.624Z,43.33
2023-03-25T04:06:26.926Z,43.16
2023-03-25T04:06:56.902Z,42.95
2023-03-25T04:07:22.366Z,42.83
2023-03-25T04:07:54.581Z,42.88
2023-03-25T04:08:26.498Z,43.41
2023-03-25T04:08:58.814Z,43.65
2023-03-25T04:09:28.043Z,43.56
2023-03-25T04:09:56.689Z,43.58
2023-03-25T04:10:23.058Z,43.93
2023-03-25T04:10:52.724Z,43.82
2023-03-25T04:11:21.896Z,44.02
2023-03-25T04:11:47.171Z,43.83
2023-03-25T04:12:17.019Z,43.79
2023-03-25T04:12:44.423Z,43.43
2023-03-25T04:13:10.617Z,43.15
2023-03-25T04:13:35.308Z,43.11
2023-03-25T04:14:00.879Z,43.05
2023-03-25T04:14:23.820Z,43.11
2023-03-25T04:14:46.225Z,42.95
2023-03-25T04:15:08.989Z,42.50
2023-03-25T04:15:30.648Z,42.70
2023-03-25T04:15:53.599Z,42.64
2023-03-25T04:16:16.661Z,42.59
2023-03-25T04:16:38.558Z,42.74
2023-03-25T04:17:00.222Z,42.48
2023-03-25T04:17:23.974Z,42.52
2023-03-25T04:17:47.986Z,42.70
2023-03-25T04:18:09.920Z,42.92
2023-03-25T04:18:33.810Z,42.89
2023-03-25T04:18:58.333Z,42.70
2023-03-25T04:19:20.059Z,42.56
2023-03-25T04:19:41.694Z,42.44
2023-03-25T04:20:06.577Z,42.49
2023-03-25T04:20:35.116Z,42.35
2023-03-25T04:20:56.930Z,42.02
2023-03-25T04:21:18.655Z,42.16
2023-03-25T04:21:40.285Z,42.40
2023-03-25T04:22:04.197Z,42.69
2023-03-25T04:22:26.217Z,42.74
2023-03-25T04:22:47.806Z,42.84
2023-03-25T04:23:10.404Z,42.93
2023-03-25T04:23:32.300Z,43.00
2023-03-25T04:23:56.312Z,43.19
2023-03-25T04:24:20.519Z,43.02
2023-03-25T04:24:42.714Z,42.99
2023-03-25T04:25:05.861Z,43.14
2023-03-25T04:25:30.333Z,43.48
2023-03-25T04:25:53.550Z,43.58
2023-03-25T04:26:15.545Z,43.48
2023-03-25T04:26:38.197Z,43.23
2023-03-25T04:27:03.624Z,43.14
2023-03-25T04:27:29.764Z,43.16
2023-03-25T04:27:53.648Z,43.13
2023-03-25T04:28:17.699Z,43.24
2023-03-25T04:28:41.839Z,43.38
2023-03-25T04:29:04.766Z,43.02
2023-03-25T04:29:26.403Z,43.18
2023-03-25T04:29:47.994Z,42.86
2023-03-25T04:30:11.722Z,42.66
2023-03-25T04:30:35.554Z,42.43
2023-03-25T04:31:00.287Z,42.38
2023-03-25T04:31:22.044Z,42.43
2023-03-25T04:31:47.110Z,42.44
2023-03-25T04:32:11.902Z,42.28
2023-03-25T04:32:35.713Z,42.40
2023-03-25T04:32:57.458Z,42.81
2023-03-25T04:33:20.899Z,42.86
2023-03-25T04:33:46.662Z,42.61
2023-03-25T04:34:09.858Z,42.39
2023-03-25T04:34:31.440Z,42.68
2023-03-25T04:34:57.574Z,42.51
2023-03-25T04:35:21.081Z,42.67
2023-03-25T04:35:42.731Z,42.67
2023-03-25T04:36:06.750Z,42.56
2023-03-25T04:36:29.720Z,42.30
2023-03-25T04:36:51.891Z,42.48
2023-03-25T04:37:13.836Z,42.16
2023-03-25T04:37:37.033Z,42.36
2023-03-25T04:37:59.349Z,42.40
2023-03-25T04:38:21.171Z,42.42
2023-03-25T04:38:45.642Z,42.78
2023-03-25T04:39:11.690Z,43.09
2023-03-25T04:39:33.382Z,42.95
2023-03-25T04:39:56.105Z,42.97
2023-03-25T04:40:19.734Z,43.01
2023-03-25T04:40:46.616Z,43.22
2023-03-25T04:41:10.584Z,43.09
2023-03-25T04:41:33.536Z,43.23
2023-03-25T04:41:56.652Z,43.09
2023-03-25T04:42:19.312Z,43.03
2023-03-25T04:42:42.709Z,42.92
2023-03-25T04:43:04.396Z,43.01
2023-03-25T04:43:26.059Z,42.88
2023-03-25T04:43:47.778Z,42.89
2023-03-25T04:44:11.318Z,43.07
2023-03-25T04:44:33.813Z,43.04
2023-03-25T04:44:55.571Z,42.98
2023-03-25T04:45:17.391Z,42.73
2023-03-25T04:45:42.907Z,42.81
2023-03-25T04:46:05.142Z,42.56
2023-03-25T04:46:27.420Z,42.78
2023-03-25T04:46:49.340Z,42.63
2023-03-25T04:47:16.199Z,42.51
2023-03-25T04:47:37.895Z,42.39
2023-03-25T04:47:59.546Z,42.20
2023-03-25T04:48:24.161Z,42.31
2023-03-25T04:48:47.479Z,42.37
2023-03-25T04:49:19.082Z,42.33
2023-03-25T04:49:42.166Z,42.46
2023-03-25T04:50:04.199Z,42.29
2023-03-25T04:50:28.315Z,42.03
2023-03-25T04:50:52.258Z,42.01
2023-03-25T04:51:15.376Z,41.96
2023-03-25T04:51:37.840Z,41.89
2023-03-25T04:52:02.187Z,41.55
2023-03-25T04:52:23.990Z,41.32
2023-03-25T04:52:46.663Z,41.23
2023-03-25T04:53:08.823Z,41.72
2023-03-25T04:53:31.435Z,42.05
2023-03-25T04:53:53.161Z,42.09
2023-03-25T04:54:18.117Z,42.18
2023-03-25T04:54:41.047Z,42.29
2023-03-25T04:55:02.735Z,42.10
2023-03-25T04:55:25.788Z,42.31
2023-03-25T04:55:50.360Z,42.44
2023-03-25T04:56:16.229Z,42.19
2023-03-25T04:56:39.450Z,41.97
2023-03-25T04:57:01.548Z,41.74
2023-03-25T04:57:25.775Z,41.79
2023-03-25T04:57:49.677Z,42.41
2023-03-25T04:58:11.436Z,42.28
2023-03-25T04:58:33.156Z,42.01
2023-03-25T04:58:54.781Z,42.47
2023-03-25T04:59:18.186Z,42.27
2023-03-25T04:59:39.814Z,41.98
2023-03-25T05:00:01.413Z,42.06
2023-03-25T05:00:24.670Z,42.27
2023-03-25T05:00:49.453Z,42.17
2023-03-25T05:01:21.281Z,42.12
2023-03-25T05:01:45.829Z,41.79
2023-03-25T05:02:13.210Z,42.09
2023-03-25T05:02:35.261Z,41.87
2023-03-25T05:03:01.795Z,41.92
2023-03-25T05:03:24.255Z,41.58
2023-03-25T05:03:50.147Z,42.05
2023-03-25T05:04:14.082Z,41.65
2023-03-25T05:04:36.733Z,41.74
2023-03-25T05:05:02.191Z,41.66
2023-03-25T05:05:25.699Z,42.01
2023-03-25T05:05:47.390Z,42.03
2023-03-25T05:06:11.302Z,41.59
2023-03-25T05:06:33.847Z,41.80
2023-03-25T05:06:56.881Z,41.74
2023-03-25T05:07:19.176Z,41.79
2023-03-25T05:07:40.844Z,41.72
2023-03-25T05:08:03.874Z,41.46
2023-03-25T05:08:25.477Z,41.69
2023-03-25T05:08:47.137Z,41.87
2023-03-25T05:09:10.442Z,41.87
2023-03-25T05:09:34.398Z,41.49
2023-03-25T05:09:57.090Z,41.44
2023-03-25T05:10:22.876Z,41.53
2023-03-25T05:10:44.812Z,41.69
2023-03-25T05:11:06.695Z,41.61
2023-03-25T05:11:29.382Z,41.32
2023-03-25T05:11:52.774Z,41.47
2023-03-25T05:12:14.420Z,41.36
2023-03-25T05:12:36.001Z,41.44
2023-03-25T05:13:02.215Z,41.25
2023-03-25T05:13:25.253Z,41.07
2023-03-25T05:13:48.705Z,41.08
2023-03-25T05:14:11.872Z,41.06
2023-03-25T05:14:33.496Z,40.67
2023-03-25T05:14:56.207Z,40.99
2023-03-25T05:15:18.105Z,40.69
2023-03-25T05:15:39.939Z,40.86
2023-03-25T05:16:01.662Z,41.14
2023-03-25T05:16:24.397Z,41.21
2023-03-25T05:16:46.909Z,41.01
2023-03-25T05:17:08.602Z,41.20
2023-03-25T05:17:31.203Z,40.94
2023-03-25T05:17:54.013Z,40.88
2023-03-25T05:18:16.953Z,41.17
2023-03-25T05:18:38.512Z,40.96
2023-03-25T05:19:00.314Z,41.09
2023-03-25T05:19:22.930Z,41.62
2023-03-25T05:19:44.842Z,40.92
2023-03-25T05:20:08.631Z,40.82
2023-03-25T05:20:35.126Z,40.81
2023-03-25T05:20:57.772Z,40.75
2023-03-25T05:21:19.369Z,40.95
2023-03-25T05:21:42.378Z,40.83
2023-03-25T05:22:04.817Z,41.00
2023-03-25T05:22:26.835Z,41.00
2023-03-25T05:22:49.405Z,40.92
2023-03-25T05:23:16.444Z,40.84
2023-03-25T05:23:38.195Z,40.96
2023-03-25T05:24:01.687Z,40.49
2023-03-25T05:24:23.339Z,40.80
2023-03-25T05:24:47.372Z,40.83
2023-03-25T05:25:10.732Z,40.21
2023-03-25T05:25:34.427Z,40.31
2023-03-25T05:25:57.081Z,40.61
2023-03-25T05:26:19.433Z,40.85
2023-03-25T05:26:42.547Z,41.20
2023-03-25T05:27:04.155Z,41.36
2023-03-25T05:27:25.765Z,41.07
2023-03-25T05:27:48.514Z,41.28
2023-03-25T05:28:13.779Z,41.36
2023-03-25T05:28:35.875Z,41.05
2023-03-25T05:29:01.509Z,41.18
2023-03-25T05:29:24.147Z,41.10
2023-03-25T05:29:46.102Z,41.02